Time;durP1;ratioP1;P1;durP2;ratioP2;P2;SDS_P1;SDS_P2;PMS_P1;PMS_P2;Temp;Humidity;BMP_temperature;BMP_pressure;BME280_temperature;BME280_humidity;BME280_pressure;Samples;Min_cycle;Max_cycle;Signal;HPM_P1;HPM_P2
2023/03/22 00:01:15;;;;;;;25.00;19.27;;;8.50;92.90;;;;;;5033744;28;20080;-45
2023/03/22 00:03:43;;;;;;;23.52;20.65;;;8.50;93.00;;;;;;5031984;28;20124;-46
2023/03/22 00:06:11;;;;;;;26.65;20.42;;;8.60;93.10;;;;;;5033255;28;20056;-44
2023/03/22 00:08:42;;;;;;;26.00;20.02;;;8.60;93.10;;;;;;5032409;28;20048;-45
2023/03/22 00:11:10;;;;;;;20.27;18.08;;;8.60;93.00;;;;;;5031940;28;20467;-45
2023/03/22 00:13:42;;;;;;;22.75;17.67;;;8.50;93.00;;;;;;5032163;28;20128;-46
2023/03/22 00:16:10;;;;;;;23.17;19.45;;;8.60;92.90;;;;;;5032644;28;20037;-45
2023/03/22 00:18:37;;;;;;;24.45;19.55;;;8.50;93.00;;;;;;5033005;28;20045;-45
2023/03/22 00:21:04;;;;;;;25.73;18.80;;;8.40;92.90;;;;;;5033206;28;20030;-45
2023/03/22 00:23:31;;;;;;;26.55;18.20;;;8.40;92.90;;;;;;5044643;28;20116;-46
2023/03/22 00:25:57;;;;;;;22.85;18.08;;;8.50;92.90;;;;;;5053073;28;20036;-45
2023/03/22 00:28:23;;;;;;;22.45;19.63;;;8.50;93.00;;;;;;5052905;28;20033;-45
2023/03/22 00:30:59;;;;;;;23.05;18.42;;;8.50;93.00;;;;;;5040175;28;20080;-46
2023/03/22 00:33:27;;;;;;;23.50;18.95;;;8.50;93.10;;;;;;5031899;28;20044;-44
2023/03/22 00:35:59;;;;;;;24.75;20.17;;;8.50;93.10;;;;;;5031947;28;20033;-47
2023/03/22 00:38:32;;;;;;;26.70;18.67;;;8.50;93.10;;;;;;5032895;28;20087;-45
2023/03/22 00:41:30;;;;;;;23.58;18.73;;;8.60;93.20;;;;;;5032885;28;20025;-45
2023/03/22 00:43:56;;;;;;;23.23;18.70;;;8.60;93.30;;;;;;5032547;28;20083;-45
2023/03/22 00:46:23;;;;;;;25.00;19.85;;;8.60;93.30;;;;;;5031960;28;20033;-45
2023/03/22 00:48:50;;;;;;;27.35;19.15;;;8.70;93.30;;;;;;5036914;28;20018;-46
2023/03/22 00:51:17;;;;;;;22.60;19.17;;;8.70;93.30;;;;;;5052671;28;20037;-45
2023/03/22 00:53:44;;;;;;;26.08;19.02;;;8.80;93.30;;;;;;5036916;28;20697;-45
2023/03/22 00:56:17;;;;;;;23.38;18.30;;;8.80;93.30;;;;;;5036413;28;20025;-45
2023/03/22 00:58:43;;;;;;;23.77;17.77;;;8.80;93.40;;;;;;5036320;28;20641;-45
2023/03/22 01:01:12;;;;;;;23.00;18.25;;;8.90;93.30;;;;;;5051838;28;20091;-47
2023/03/22 01:03:40;;;;;;;21.55;17.48;;;8.90;93.30;;;;;;5035727;28;20041;-45
2023/03/22 01:06:07;;;;;;;23.67;19.60;;;8.90;93.20;;;;;;5035306;28;20036;-45
2023/03/22 01:08:37;;;;;;;24.63;19.80;;;8.90;93.20;;;;;;5036864;28;20353;-45
2023/03/22 01:11:06;;;;;;;21.45;18.42;;;9.00;93.20;;;;;;5036278;28;20049;-45
2023/03/22 01:13:46;;;;;;;22.55;17.92;;;9.00;93.20;;;;;;5052323;28;20037;-45
2023/03/22 01:16:23;;;;;;;22.02;17.35;;;9.00;93.20;;;;;;5036370;28;20048;-44
2023/03/22 01:18:51;;;;;;;22.70;18.17;;;9.00;93.20;;;;;;5036102;28;20144;-45
2023/03/22 01:21:18;;;;;;;23.45;16.67;;;9.00;93.20;;;;;;5036271;28;20030;-44
2023/03/22 01:23:45;;;;;;;20.05;16.13;;;9.00;93.20;;;;;;5053788;28;20036;-44
2023/03/22 01:26:14;;;;;;;19.75;15.77;;;9.00;93.20;;;;;;5056187;28;20029;-47
2023/03/22 01:28:43;;;;;;;;;;;9.10;93.20;;;;;;5056945;28;20044;-46
2023/03/22 01:31:11;;;;;;;25.77;16.38;;;9.10;93.20;;;;;;5041779;28;20330;-44
2023/03/22 01:33:38;;;;;;;20.08;15.43;;;9.10;93.20;;;;;;5034497;28;20459;-44
2023/03/22 01:36:04;;;;;;;21.52;14.82;;;9.10;93.30;;;;;;5036257;28;20063;-45
2023/03/22 01:38:33;;;;;;;23.02;15.18;;;9.10;93.20;;;;;;5036460;28;20462;-45
2023/03/22 01:41:02;;;;;;;21.55;14.15;;;9.20;93.30;;;;;;5036077;28;20029;-45
2023/03/22 01:43:28;;;;;;;18.42;13.52;;;9.20;93.20;;;;;;5049388;28;20024;-45
2023/03/22 01:45:55;;;;;;;19.75;12.77;;;9.30;93.10;;;;;;5055828;28;20043;-44
2023/03/22 01:48:44;;;;;;;24.38;12.52;;;9.30;93.00;;;;;;5055816;28;20021;-43
2023/03/22 01:51:31;;;;;;;13.93;11.25;;;9.30;92.90;;;;;;5039286;28;20037;-45
2023/03/22 01:54:05;;;;;;;19.48;11.35;;;9.40;92.70;;;;;;5035462;28;20029;-45
2023/03/22 01:56:35;;;;;;;18.08;12.02;;;9.40;92.50;;;;;;5034332;28;20493;-44
2023/03/22 01:59:04;;;;;;;16.75;11.27;;;9.40;92.40;;;;;;5033050;28;20120;-45
2023/03/22 02:01:33;;;;;;;15.30;10.40;;;9.40;92.40;;;;;;5034378;28;20061;-44
2023/03/22 02:04:05;;;;;;;;;;;9.40;92.30;;;;;;5036084;28;20022;-45
2023/03/22 02:06:37;;;;;;;14.65;9.60;;;9.40;92.30;;;;;;5035082;28;19913;-45
2023/03/22 02:09:05;;;;;;;15.02;11.02;;;9.40;92.20;;;;;;5035480;28;20128;-43
2023/03/22 02:11:37;;;;;;;15.88;11.65;;;9.40;92.30;;;;;;5034404;28;20044;-43
2023/03/22 02:14:31;;;;;;;16.10;11.35;;;9.40;92.30;;;;;;5034587;28;20108;-43
2023/03/22 02:17:26;;;;;;;17.70;13.07;;;9.40;92.30;;;;;;5035412;28;20096;-43
2023/03/22 02:20:18;;;;;;;16.55;12.68;;;9.40;92.40;;;;;;5035241;28;20041;-44
2023/03/22 02:23:12;;;;;;;19.38;14.15;;;9.40;92.40;;;;;;5035265;28;20104;-44
2023/03/22 02:26:21;;;;;;;17.35;14.77;;;9.40;92.40;;;;;;5033952;28;20340;-44
2023/03/22 02:29:12;;;;;;;17.67;13.32;;;9.40;92.50;;;;;;5034958;28;20034;-44
2023/03/22 02:32:09;;;;;;;15.68;13.30;;;9.40;92.40;;;;;;5034994;28;20071;-43
2023/03/22 02:35:24;;;;;;;20.13;14.43;;;9.40;92.40;;;;;;5034783;28;20049;-44
2023/03/22 02:38:21;;;;;;;16.92;13.95;;;9.40;92.50;;;;;;5025566;28;20069;-46
2023/03/22 02:41:32;;;;;;;19.75;13.93;;;9.30;92.50;;;;;;5034728;28;20038;-45
2023/03/22 02:44:27;;;;;;;17.40;12.82;;;9.30;92.50;;;;;;5012077;28;20470;-44
2023/03/22 02:47:19;;;;;;;14.50;12.45;;;9.30;92.50;;;;;;5033544;28;20029;-44
2023/03/22 02:50:42;;;;;;;16.52;11.35;;;9.30;92.50;;;;;;5034745;28;20026;-44
2023/03/22 02:53:25;;;;;;;20.05;11.60;;;9.30;92.40;;;;;;5012887;28;20025;-43
2023/03/22 02:56:15;;;;;;;18.02;11.13;;;9.30;92.30;;;;;;4997053;28;20032;-44
2023/03/22 02:58:49;;;;;;;16.30;10.60;;;9.30;92.20;;;;;;5012624;28;20105;-46
2023/03/22 03:01:56;;;;;;;16.73;10.75;;;9.30;92.10;;;;;;5012226;28;20037;-43
2023/03/22 03:04:37;;;;;;;13.07;9.27;;;9.40;92.00;;;;;;4996355;28;20117;-44
2023/03/22 03:07:08;;;;;;;14.98;9.38;;;9.40;91.80;;;;;;5012427;28;20028;-43
2023/03/22 03:09:38;;;;;;;16.23;9.57;;;9.30;91.60;;;;;;4979612;28;20069;-43
2023/03/22 03:12:22;;;;;;;15.55;8.95;;;9.30;91.70;;;;;;4994847;28;20061;-43
2023/03/22 03:14:49;;;;;;;15.55;9.43;;;9.40;91.70;;;;;;4998046;28;20033;-43
2023/03/22 03:17:52;;;;;;;13.88;7.78;;;9.30;91.50;;;;;;5011905;28;20498;-44
2023/03/22 03:20:53;;;;;;;12.00;8.73;;;9.30;91.50;;;;;;5011754;28;20471;-43
2023/03/22 03:24:01;;;;;;;13.55;8.05;;;9.40;91.40;;;;;;5016950;28;20095;-44
2023/03/22 03:26:47;;;;;;;13.52;7.70;;;9.30;91.30;;;;;;5033596;28;20076;-43
2023/03/22 03:29:38;;;;;;;15.15;8.27;;;9.30;91.30;;;;;;5034010;28;20387;-51
2023/03/22 03:32:14;;;;;;;13.30;6.70;;;9.30;91.10;;;;;;5033701;28;20037;-43
2023/03/22 03:34:58;;;;;;;9.63;5.63;;;9.30;91.00;;;;;;5033700;28;20457;-44
2023/03/22 03:37:51;;;;;;;11.00;6.55;;;9.30;90.90;;;;;;5032410;28;20052;-43
2023/03/22 03:40:32;;;;;;;14.35;6.20;;;9.30;90.90;;;;;;5032430;28;20049;-44
2023/03/22 03:43:03;;;;;;;11.80;6.13;;;9.30;90.80;;;;;;5032840;28;20037;-43
2023/03/22 03:45:29;;;;;;;9.95;5.25;;;9.30;90.70;;;;;;5032502;28;20462;-44
2023/03/22 03:48:01;;;;;;;16.20;6.78;;;9.30;90.60;;;;;;5033523;28;20038;-44
2023/03/22 03:50:27;;;;;;;10.25;5.90;;;9.30;90.60;;;;;;5069042;28;20115;-44
2023/03/22 03:53:00;;;;;;;13.55;5.80;;;9.30;90.50;;;;;;5052587;28;20167;-43
2023/03/22 03:55:27;;;;;;;9.45;5.53;;;9.30;90.50;;;;;;5038464;28;20516;-44
2023/03/22 03:57:53;;;;;;;9.88;6.30;;;9.30;90.60;;;;;;5048940;28;20030;-44
2023/03/22 04:00:19;;;;;;;14.00;6.25;;;9.30;90.50;;;;;;5032347;28;20455;-43
2023/03/22 04:02:46;;;;;;;13.27;5.97;;;9.30;90.50;;;;;;5054421;28;20044;-44
2023/03/22 04:05:13;;;;;;;16.52;7.38;;;9.30;90.40;;;;;;5053310;28;20052;-46
2023/03/22 04:07:40;;;;;;;12.52;6.55;;;9.30;90.30;;;;;;5052217;28;20148;-45
2023/03/22 04:10:08;;;;;;;9.85;6.95;;;9.30;90.30;;;;;;5033394;28;20037;-44
2023/03/22 04:12:35;;;;;;;12.60;6.75;;;9.30;90.30;;;;;;5048658;28;20040;-44
2023/03/22 04:15:02;;;;;;;13.85;5.72;;;9.30;90.40;;;;;;5049681;28;20025;-44
2023/03/22 04:17:30;;;;;;;13.48;6.55;;;9.30;90.30;;;;;;5052843;28;20021;-43
2023/03/22 04:19:57;;;;;;;11.52;5.55;;;9.30;90.30;;;;;;5041448;28;20091;-43
2023/03/22 04:22:26;;;;;;;12.48;5.93;;;9.30;90.30;;;;;;5031479;28;20597;-43
2023/03/22 04:24:58;;;;;;;10.30;5.60;;;9.20;90.40;;;;;;5046711;28;20390;-43
2023/03/22 04:27:26;;;;;;;13.15;6.20;;;9.20;90.50;;;;;;5052931;28;20141;-44
2023/03/22 04:29:54;;;;;;;9.23;5.60;;;9.20;90.50;;;;;;5053002;28;20013;-44
2023/03/22 04:32:24;;;;;;;11.57;5.68;;;9.20;90.60;;;;;;5045381;28;20347;-43
2023/03/22 04:34:54;;;;;;;14.25;5.10;;;9.20;90.50;;;;;;5033166;28;20060;-46
2023/03/22 04:37:30;;;;;;;12.85;5.38;;;9.30;90.50;;;;;;5040894;28;20045;-44
2023/03/22 04:39:57;;;;;;;11.82;5.38;;;9.20;90.50;;;;;;5033431;28;20525;-43
2023/03/22 04:42:27;;;;;;;11.93;6.32;;;9.20;90.60;;;;;;5031804;28;20041;-43
2023/03/22 04:44:54;;;;;;;;;;;9.30;90.50;;;;;;5032437;28;20033;-43
2023/03/22 04:47:21;;;;;;;9.50;4.80;;;9.30;90.60;;;;;;5032973;28;20323;-45
2023/03/22 04:49:48;;;;;;;10.45;4.90;;;9.20;90.60;;;;;;5032954;28;20061;-45
2023/03/22 04:52:15;;;;;;;11.40;4.93;;;9.30;90.60;;;;;;5032806;28;20041;-44
2023/03/22 04:54:41;;;;;;;11.23;4.43;;;9.30;90.50;;;;;;5032738;28;20029;-44
2023/03/22 04:57:07;;;;;;;10.40;5.00;;;9.30;90.50;;;;;;5032845;28;20025;-43
2023/03/22 04:59:34;;;;;;;11.25;4.90;;;9.30;90.40;;;;;;5051417;28;20025;-44
2023/03/22 05:02:01;;;;;;;16.23;5.38;;;9.30;90.40;;;;;;5045592;28;20029;-44
2023/03/22 05:04:28;;;;;;;11.65;6.43;;;9.30;90.40;;;;;;5036423;28;20100;-43
2023/03/22 05:06:55;;;;;;;9.90;5.07;;;9.30;90.40;;;;;;5035228;28;20071;-44
2023/03/22 05:09:21;;;;;;;11.75;4.75;;;9.30;90.30;;;;;;5036612;28;20029;-44
2023/03/22 05:11:49;;;;;;;11.82;4.90;;;9.30;90.10;;;;;;5032726;28;20026;-44
2023/03/22 05:14:15;;;;;;;13.13;5.30;;;9.30;90.10;;;;;;5048138;28;20615;-43
2023/03/22 05:16:42;;;;;;;11.18;4.60;;;9.30;90.20;;;;;;5032641;28;20040;-44
2023/03/22 05:19:13;;;;;;;14.25;4.50;;;9.40;90.20;;;;;;5035930;28;20045;-45
2023/03/22 05:21:42;;;;;;;9.32;4.38;;;9.40;90.20;;;;;;5041839;28;20033;-44
2023/03/22 05:24:10;;;;;;;11.02;4.50;;;9.30;90.10;;;;;;5031411;28;20573;-43
2023/03/22 05:26:41;;;;;;;8.85;4.70;;;9.40;90.20;;;;;;5031573;28;20037;-44
2023/03/22 05:29:18;;;;;;;10.13;4.68;;;9.40;90.10;;;;;;5032779;28;20075;-45
2023/03/22 05:31:50;;;;;;;8.63;4.85;;;9.30;90.10;;;;;;5032470;28;20466;-44
2023/03/22 05:34:16;;;;;;;10.65;4.93;;;9.40;90.20;;;;;;5035294;28;20087;-44
2023/03/22 05:36:43;;;;;;;8.93;5.60;;;9.30;90.30;;;;;;5035954;28;20034;-45
2023/03/22 05:39:14;;;;;;;16.33;5.47;;;9.30;90.30;;;;;;5035844;28;20026;-44
2023/03/22 05:41:42;;;;;;;10.43;5.50;;;9.40;90.30;;;;;;5051005;28;20025;-44
2023/03/22 05:44:10;;;;;;;10.70;5.75;;;9.30;90.20;;;;;;5052328;28;20072;-44
2023/03/22 05:46:36;;;;;;;15.23;6.18;;;9.40;90.20;;;;;;5035843;28;20332;-44
2023/03/22 05:49:04;;;;;;;13.85;6.32;;;9.40;90.30;;;;;;5035420;28;20036;-44
2023/03/22 05:51:32;;;;;;;12.48;6.25;;;9.40;90.10;;;;;;5035483;28;20097;-45
2023/03/22 05:53:59;;;;;;;15.50;8.10;;;9.40;90.00;;;;;;5048514;28;20671;-45
2023/03/22 05:56:27;;;;;;;12.45;7.28;;;9.40;89.90;;;;;;5054560;28;20052;-43
2023/03/22 05:58:57;;;;;;;13.82;6.05;;;9.40;89.90;;;;;;5035657;28;20055;-47
2023/03/22 06:01:24;;;;;;;16.00;7.50;;;9.40;89.90;;;;;;5035295;28;20087;-44
2023/03/22 06:03:49;;;;;;;14.00;6.43;;;9.40;89.70;;;;;;5053515;28;20039;-45
2023/03/22 06:06:15;;;;;;;10.63;6.72;;;9.40;89.60;;;;;;5052824;28;20029;-43
2023/03/22 06:08:42;;;;;;;13.18;5.85;;;9.40;89.60;;;;;;5035039;28;20040;-44
2023/03/22 06:11:09;;;;;;;13.93;6.03;;;9.40;89.60;;;;;;5034966;28;20033;-45
2023/03/22 06:13:40;;;;;;;10.88;4.88;;;9.50;89.60;;;;;;5033927;28;20060;-46
2023/03/22 06:16:06;;;;;;;9.50;4.70;;;9.50;89.40;;;;;;5035044;28;20037;-44
2023/03/22 06:18:33;;;;;;;9.98;4.97;;;9.50;89.40;;;;;;5034772;28;20132;-44
2023/03/22 06:21:04;;;;;;;10.82;4.97;;;9.60;89.20;;;;;;5034225;28;20031;-47
2023/03/22 06:23:34;;;;;;;11.25;5.45;;;9.60;89.30;;;;;;5035202;28;20454;-45
2023/03/22 06:26:01;;;;;;;13.43;6.45;;;9.60;89.40;;;;;;5035177;28;20025;-45
2023/03/22 06:28:28;;;;;;;10.02;6.05;;;9.70;89.10;;;;;;5034151;28;20025;-45
2023/03/22 06:30:54;;;;;;;11.75;6.18;;;9.70;89.20;;;;;;5035040;28;20040;-44
2023/03/22 06:33:22;;;;;;;14.70;7.63;;;9.70;89.20;;;;;;5034012;28;20037;-46
2023/03/22 06:35:49;;;;;;;12.80;6.47;;;9.80;89.20;;;;;;5034942;28;20025;-46
2023/03/22 06:38:19;;;;;;;10.70;6.75;;;9.80;89.10;;;;;;5034899;28;20029;-47
2023/03/22 06:40:45;;;;;;;10.90;7.45;;;9.90;89.00;;;;;;5034371;28;20686;-47
2023/03/22 06:43:12;;;;;;;11.70;8.13;;;9.80;89.20;;;;;;5034999;28;20052;-45
2023/03/22 06:45:40;;;;;;;11.70;7.75;;;9.80;89.40;;;;;;5034081;28;20071;-45
2023/03/22 06:48:08;;;;;;;12.98;8.10;;;9.90;89.60;;;;;;5034568;28;20417;-45
2023/03/22 06:50:37;;;;;;;15.18;9.07;;;9.90;89.60;;;;;;5033590;28;20025;-45
2023/03/22 06:53:07;;;;;;;11.18;9.02;;;9.90;89.60;;;;;;5034524;28;20355;-46
2023/03/22 06:55:34;;;;;;;18.45;9.43;;;9.90;89.70;;;;;;5037215;28;20473;-45
2023/03/22 06:58:02;;;;;;;16.33;9.50;;;9.90;89.50;;;;;;5054764;28;20411;-45
2023/03/22 07:00:30;;;;;;;17.13;9.48;;;9.90;89.50;;;;;;5053221;28;20037;-45
2023/03/22 07:02:57;;;;;;;16.42;10.05;;;9.90;89.50;;;;;;5039926;28;20465;-46
2023/03/22 07:05:24;;;;;;;16.92;9.60;;;10.00;89.70;;;;;;5034562;28;20088;-47
2023/03/22 07:07:51;;;;;;;14.48;10.55;;;10.10;89.70;;;;;;5049677;28;20108;-46
2023/03/22 07:10:17;;;;;;;13.80;10.63;;;10.10;89.60;;;;;;5033423;28;20530;-47
2023/03/22 07:12:44;;;;;;;15.38;10.80;;;10.10;89.60;;;;;;5033496;28;20120;-45
2023/03/22 07:15:10;;;;;;;19.20;11.50;;;10.20;89.70;;;;;;5034246;28;20120;-45
2023/03/22 07:17:38;;;;;;;17.92;12.02;;;10.30;89.70;;;;;;5033730;28;20130;-45
2023/03/22 07:20:06;;;;;;;13.50;10.95;;;10.30;89.60;;;;;;5033753;28;20041;-50
2023/03/22 07:22:36;;;;;;;15.25;11.20;;;10.40;89.50;;;;;;5033914;28;20025;-45
2023/03/22 07:25:03;;;;;;;16.83;12.30;;;10.40;89.20;;;;;;5033982;28;20022;-45
2023/03/22 07:27:31;;;;;;;13.30;10.75;;;10.50;89.30;;;;;;5033950;28;20041;-45
2023/03/22 07:29:57;;;;;;;12.15;10.85;;;10.70;89.20;;;;;;5044029;28;20040;-44
2023/03/22 07:32:24;;;;;;;15.15;11.52;;;10.80;89.00;;;;;;5052770;28;20025;-46
2023/03/22 07:34:52;;;;;;;17.70;12.95;;;10.90;88.60;;;;;;5034881;28;20071;-44
2023/03/22 07:37:19;;;;;;;16.48;11.25;;;11.00;88.30;;;;;;5032981;28;20037;-46
2023/03/22 07:39:46;;;;;;;19.15;11.15;;;11.00;88.10;;;;;;5032408;28;20029;-44
2023/03/22 07:42:14;;;;;;;16.65;11.60;;;11.20;87.70;;;;;;5033722;28;20029;-45
2023/03/22 07:44:42;;;;;;;17.98;12.30;;;11.20;87.60;;;;;;5033672;28;20056;-46
2023/03/22 07:47:10;;;;;;;16.70;10.68;;;11.10;87.80;;;;;;5049339;28;20018;-45
2023/03/22 07:49:37;;;;;;;17.48;10.70;;;11.10;87.80;;;;;;5033775;28;20025;-47
2023/03/22 07:52:03;;;;;;;16.17;11.13;;;11.20;87.70;;;;;;5033749;28;20036;-46
2023/03/22 07:54:30;;;;;;;14.63;11.82;;;11.20;87.50;;;;;;5032785;28;20595;-44
2023/03/22 07:56:59;;;;;;;15.38;12.43;;;11.20;87.70;;;;;;5032728;28;20021;-46
2023/03/22 07:59:26;;;;;;;14.15;10.00;;;11.30;87.40;;;;;;5033246;28;20060;-46
2023/03/22 08:01:52;;;;;;;15.35;11.10;;;11.30;87.30;;;;;;5044504;28;20055;-47
2023/03/22 08:04:21;;;;;;;15.50;10.68;;;11.40;87.30;;;;;;5053253;28;20025;-47
2023/03/22 08:06:48;;;;;;;16.48;10.55;;;11.50;87.00;;;;;;5046270;28;20032;-47
2023/03/22 08:09:17;;;;;;;19.20;12.20;;;11.60;86.70;;;;;;5033656;28;20114;-48
2023/03/22 08:11:44;;;;;;;16.65;11.20;;;11.60;86.80;;;;;;5048717;28;20026;-46
2023/03/22 08:14:10;;;;;;;17.38;11.18;;;11.60;86.40;;;;;;5033814;28;20568;-46
2023/03/22 08:16:40;;;;;;;14.45;9.80;;;11.50;86.40;;;;;;5033282;28;20128;-45
2023/03/22 08:19:07;;;;;;;;;;;11.50;86.90;;;;;;5032295;28;20136;-45
2023/03/22 08:21:34;;;;;;;16.20;11.07;;;11.50;86.70;;;;;;5033038;28;20061;-49
2023/03/22 08:24:02;;;;;;;18.83;11.32;;;11.50;86.70;;;;;;5032927;28;20393;-50
2023/03/22 08:26:30;;;;;;;14.80;10.38;;;11.60;86.60;;;;;;5033135;28;20036;-50
2023/03/22 08:28:58;;;;;;;14.40;10.05;;;11.60;86.60;;;;;;5031856;28;20033;-47
2023/03/22 08:31:34;;;;;;;17.27;11.73;;;11.60;86.50;;;;;;5032817;28;20021;-46
2023/03/22 08:34:03;;;;;;;20.35;10.80;;;11.60;86.40;;;;;;5031946;28;20037;-46
2023/03/22 08:36:29;;;;;;;17.95;10.77;;;11.50;86.20;;;;;;5032637;28;20096;-47
2023/03/22 08:38:56;;;;;;;12.52;8.98;;;11.60;86.40;;;;;;5032475;28;20569;-45
2023/03/22 08:41:24;;;;;;;14.80;9.88;;;11.60;85.90;;;;;;5031828;28;20045;-45
2023/03/22 08:43:52;;;;;;;14.35;9.50;;;11.60;85.70;;;;;;5032725;28;20021;-47
2023/03/22 08:46:20;;;;;;;16.40;9.75;;;11.70;86.20;;;;;;5032738;28;20518;-47
2023/03/22 08:48:53;;;;;;;12.68;9.35;;;11.80;85.90;;;;;;5031933;28;20111;-47
2023/03/22 08:51:21;;;;;;;19.55;9.27;;;11.80;85.80;;;;;;5031693;28;20033;-45
2023/03/22 08:53:48;;;;;;;14.95;9.18;;;11.80;85.50;;;;;;5031742;28;20029;-45
2023/03/22 08:56:18;;;;;;;14.38;10.10;;;11.90;84.80;;;;;;5041259;28;20111;-46
2023/03/22 08:58:53;;;;;;;16.08;8.55;;;11.90;85.10;;;;;;5052622;28;20048;-45
2023/03/22 09:01:24;;;;;;;12.10;9.32;;;11.90;84.70;;;;;;5051652;28;20029;-45
2023/03/22 09:03:53;;;;;;;17.25;8.88;;;11.90;84.50;;;;;;5051437;28;20063;-45
2023/03/22 09:06:20;;;;;;;10.75;8.05;;;12.00;84.80;;;;;;5016231;28;20124;-46
2023/03/22 09:08:50;;;;;;;11.65;8.10;;;12.00;84.60;;;;;;5035340;28;20029;-44
2023/03/22 09:11:19;;;;;;;12.43;7.72;;;12.00;84.30;;;;;;5036694;28;20040;-47
2023/03/22 09:13:46;;;;;;;12.93;7.90;;;12.10;84.20;;;;;;5051838;28;20045;-45
2023/03/22 09:16:13;;;;;;;11.18;8.05;;;12.20;83.70;;;;;;5035551;28;20025;-47
2023/03/22 09:18:45;;;;;;;14.43;7.97;;;12.20;83.90;;;;;;5035983;28;20056;-44
2023/03/22 09:21:12;;;;;;;9.52;6.82;;;12.20;83.60;;;;;;5036367;28;20108;-47
2023/03/22 09:23:40;;;;;;;12.23;7.45;;;12.20;83.70;;;;;;5036159;28;20021;-45
2023/03/22 09:26:11;;;;;;;9.18;6.90;;;12.30;83.60;;;;;;5036069;28;20459;-45
2023/03/22 09:28:41;;;;;;;11.20;6.05;;;12.20;83.60;;;;;;5035121;28;20039;-45
2023/03/22 09:31:09;;;;;;;10.85;6.30;;;12.30;83.50;;;;;;5035873;28;20030;-45
2023/03/22 09:33:36;;;;;;;13.02;6.63;;;12.30;83.10;;;;;;5035126;28;20067;-44
2023/03/22 09:36:04;;;;;;;10.43;6.65;;;12.30;83.00;;;;;;5028041;28;20099;-45
2023/03/22 09:38:35;;;;;;;10.43;5.43;;;12.20;82.70;;;;;;5036054;28;20112;-45
2023/03/22 09:41:16;;;;;;;10.57;6.57;;;12.20;82.30;;;;;;5044563;28;20061;-45
2023/03/22 09:43:47;;;;;;;9.80;5.93;;;12.40;82.40;;;;;;5055023;28;20017;-45
2023/03/22 09:46:19;;;;;;;12.18;5.18;;;12.50;81.60;;;;;;5054862;28;20029;-46
2023/03/22 09:48:47;;;;;;;10.35;5.90;;;12.60;81.20;;;;;;5042629;28;20107;-47
2023/03/22 09:51:34;;;;;;;9.68;5.35;;;12.80;80.90;;;;;;5034875;28;20425;-45
2023/03/22 09:54:01;;;;;;;9.48;5.40;;;12.90;79.80;;;;;;5052398;28;20044;-45
2023/03/22 09:56:30;;;;;;;9.70;4.95;;;13.00;79.40;;;;;;5055405;28;20441;-45
2023/03/22 09:59:38;;;;;;;11.30;4.63;;;13.20;79.60;;;;;;5053931;28;20094;-46
2023/03/22 10:02:25;;;;;;;9.07;4.60;;;13.20;79.60;;;;;;5044807;28;20452;-47
2023/03/22 10:05:13;;;;;;;10.00;4.50;;;13.20;78.20;;;;;;5046369;28;20083;-46
2023/03/22 10:07:55;;;;;;;8.60;3.70;;;13.20;78.80;;;;;;5035412;28;20017;-44
2023/03/22 10:10:24;;;;;;;11.65;4.47;;;13.00;78.30;;;;;;5035734;28;20032;-44
2023/03/22 10:12:56;;;;;;;10.50;4.75;;;12.90;78.50;;;;;;5034449;28;20044;-45
2023/03/22 10:15:47;;;;;;;8.73;4.40;;;12.90;79.50;;;;;;5035266;28;20017;-47
2023/03/22 10:18:20;;;;;;;12.48;4.47;;;12.80;78.90;;;;;;5034089;28;20061;-46
2023/03/22 10:21:17;;;;;;;8.65;4.38;;;12.80;79.10;;;;;;5033975;28;20053;-44
2023/03/22 10:24:21;;;;;;;8.95;4.60;;;12.90;80.00;;;;;;5035362;28;20499;-45
2023/03/22 10:26:47;;;;;;;7.63;4.10;;;13.10;79.50;;;;;;5035014;28;20108;-46
2023/03/22 10:29:38;;;;;;;11.00;4.25;;;13.00;78.80;;;;;;5034260;28;20083;-45
2023/03/22 10:32:44;;;;;;;8.25;3.55;;;13.10;78.40;;;;;;5035032;28;20105;-45
2023/03/22 10:35:21;;;;;;;8.30;3.63;;;13.00;78.60;;;;;;5029899;28;20045;-46
2023/03/22 10:37:54;;;;;;;7.55;3.60;;;12.90;78.70;;;;;;5035049;28;20152;-48
2023/03/22 10:40:28;;;;;;;10.45;3.40;;;12.90;78.90;;;;;;5033755;28;20029;-46
2023/03/22 10:43:09;;;;;;;10.52;3.67;;;12.80;78.80;;;;;;5033999;28;20149;-45
2023/03/22 10:45:36;;;;;;;10.23;4.03;;;12.80;78.80;;;;;;5034939;28;20041;-46
2023/03/22 10:48:28;;;;;;;12.85;3.88;;;12.90;78.40;;;;;;5034693;28;20037;-47
2023/03/22 10:50:57;;;;;;;14.55;4.10;;;12.90;78.50;;;;;;5033632;28;20540;-45
2023/03/22 10:53:46;;;;;;;7.75;3.67;;;13.00;79.00;;;;;;5033661;28;20128;-45
2023/03/22 10:56:19;;;;;;;;;;;12.90;78.40;;;;;;5034374;28;20037;-46
2023/03/22 10:58:48;;;;;;;12.68;4.00;;;12.90;78.50;;;;;;5034347;28;19912;-45
2023/03/22 11:01:24;;;;;;;7.70;3.50;;;12.90;78.60;;;;;;5033408;28;20053;-45
2023/03/22 11:04:15;;;;;;;9.45;3.47;;;12.90;78.50;;;;;;5039207;28;20029;-45
2023/03/22 11:06:52;;;;;;;8.07;3.03;;;12.90;78.40;;;;;;5032990;28;20037;-46
2023/03/22 11:09:39;;;;;;;9.95;4.40;;;12.80;78.20;;;;;;5033364;28;20376;-45
2023/03/22 11:12:11;;;;;;;11.30;3.80;;;12.80;79.30;;;;;;5034007;28;20520;-47
2023/03/22 11:14:44;;;;;;;9.05;2.80;;;12.60;79.30;;;;;;5033295;28;20037;-44
2023/03/22 11:17:31;;;;;;;7.60;3.00;;;12.50;80.20;;;;;;5047823;28;20032;-43
2023/03/22 11:20:19;;;;;;;12.32;4.10;;;12.40;81.90;;;;;;5053998;28;20159;-43
2023/03/22 11:22:49;;;;;;;9.23;4.10;;;12.30;82.10;;;;;;5039262;28;20079;-42
2023/03/22 11:25:27;;;;;;;9.45;4.53;;;12.20;82.90;;;;;;5033107;28;20053;-45
2023/03/22 11:28:16;;;;;;;9.73;3.92;;;12.00;83.40;;;;;;5033948;28;20044;-42
2023/03/22 11:31:05;;;;;;;9.65;4.35;;;11.90;83.80;;;;;;5032697;28;20124;-44
2023/03/22 11:33:32;;;;;;;12.00;3.85;;;11.90;84.50;;;;;;5032971;28;20044;-50
2023/03/22 11:36:01;;;;;;;6.88;3.45;;;11.90;84.60;;;;;;5033978;28;20079;-46
2023/03/22 11:38:40;;;;;;;9.02;4.10;;;11.90;84.90;;;;;;5032961;28;20028;-46
2023/03/22 11:41:25;;;;;;;7.00;3.60;;;11.80;85.30;;;;;;5032570;28;20052;-47
2023/03/22 11:43:55;;;;;;;7.85;4.15;;;11.70;85.70;;;;;;5033594;28;20379;-48
2023/03/22 11:46:22;;;;;;;9.80;4.15;;;11.60;86.20;;;;;;5016340;28;20068;-47
2023/03/22 11:48:52;;;;;;;8.07;3.95;;;11.60;86.70;;;;;;5049120;28;20439;-48
2023/03/22 11:51:32;;;;;;;8.70;4.05;;;11.50;87.00;;;;;;5050040;28;20025;-49
2023/03/22 11:54:24;;;;;;;10.23;3.83;;;11.50;87.20;;;;;;5052612;28;20037;-50
2023/03/22 11:56:56;;;;;;;10.73;4.68;;;11.60;87.30;;;;;;5042320;28;20036;-47
2023/03/22 11:59:57;;;;;;;16.27;4.80;;;11.50;87.00;;;;;;5032646;28;20447;-47
2023/03/22 12:02:31;;;;;;;8.73;4.28;;;11.50;86.70;;;;;;5033114;28;20037;-49
2023/03/22 12:05:22;;;;;;;8.38;4.47;;;11.50;86.80;;;;;;5032844;28;20168;-46
2023/03/22 12:08:17;;;;;;;10.68;4.15;;;11.50;87.00;;;;;;5032519;28;20029;-48
2023/03/22 12:10:51;;;;;;;10.68;4.75;;;11.60;86.80;;;;;;5048704;28;20162;-45
2023/03/22 12:13:45;;;;;;;9.63;4.07;;;11.60;86.60;;;;;;5036221;28;20052;-45
2023/03/22 12:16:14;;;;;;;11.43;5.05;;;11.60;87.20;;;;;;5034465;28;20029;-49
2023/03/22 12:19:17;;;;;;;11.40;4.80;;;11.70;87.10;;;;;;5040644;28;20059;-47
2023/03/22 12:21:44;;;;;;;9.23;4.40;;;11.60;87.00;;;;;;5052975;28;20024;-46
2023/03/22 12:24:26;;;;;;;11.60;4.40;;;11.70;87.40;;;;;;5047870;28;20026;-45
2023/03/22 12:27:02;;;;;;;8.48;4.60;;;11.60;87.30;;;;;;5033085;28;20013;-47
2023/03/22 12:29:30;;;;;;;10.02;4.50;;;11.60;87.60;;;;;;5048419;28;20034;-46
2023/03/22 12:32:14;;;;;;;9.07;4.95;;;11.50;87.90;;;;;;5031594;28;20121;-46
2023/03/22 12:34:48;;;;;;;6.68;4.00;;;11.50;88.00;;;;;;5031584;28;20037;-44
2023/03/22 12:37:34;;;;;;;13.30;4.43;;;11.50;87.90;;;;;;5031583;28;20033;-45
2023/03/22 12:40:20;;;;;;;7.60;4.20;;;11.50;87.60;;;;;;5032033;28;20175;-44
2023/03/22 12:43:18;;;;;;;7.07;4.47;;;11.40;87.40;;;;;;5033877;28;20044;-43
2023/03/22 12:46:00;;;;;;;12.25;4.82;;;11.40;87.70;;;;;;5052980;28;20034;-45
2023/03/22 12:48:53;;;;;;;7.28;4.25;;;11.40;87.90;;;;;;5057556;28;20446;-45
2023/03/22 12:51:20;;;;;;;7.45;3.92;;;11.40;87.70;;;;;;5056699;28;20085;-48
2023/03/22 12:53:51;;;;;;;7.93;4.28;;;11.40;87.30;;;;;;5055447;28;20118;-43
2023/03/22 12:56:44;;;;;;;8.98;4.47;;;11.40;87.30;;;;;;5049341;28;20470;-43
2023/03/22 12:59:29;;;;;;;10.73;4.45;;;11.30;87.20;;;;;;5036880;28;20514;-46
2023/03/22 13:02:33;;;;;;;7.03;3.60;;;11.30;87.40;;;;;;5019038;28;20029;-43
2023/03/22 13:05:05;;;;;;;7.45;3.70;;;11.20;87.30;;;;;;5023502;28;20046;-45
2023/03/22 13:08:02;;;;;;;6.85;4.43;;;11.20;87.60;;;;;;5036664;28;20034;-44
2023/03/22 13:10:35;;;;;;;9.40;4.28;;;11.20;88.10;;;;;;5036434;28;20048;-43
2023/03/22 13:13:23;;;;;;;8.20;4.55;;;11.10;88.10;;;;;;5036827;28;20029;-43
2023/03/22 13:16:10;;;;;;;12.52;4.93;;;11.10;88.20;;;;;;5035564;28;20108;-44
2023/03/22 13:18:57;;;;;;;8.80;4.05;;;11.10;88.20;;;;;;5035276;28;20194;-46